Time;durP1;ratioP1;P1;durP2;ratioP2;P2;SDS_P1;SDS_P2;PMS_P1;PMS_P2;Temp;Humidity;BMP_temperature;BMP_pressure;BME280_temperature;BME280_humidity;BME280_pressure;Samples;Min_cycle;Max_cycle;Signal;HPM_P1;HPM_P2
2023/08/16 00:02:15;;;;;;;4.93;3.40;;;25.90;74.00;26.70;101013.00;;;;5009477;28;20211;-62
2023/08/16 00:04:41;;;;;;;3.92;3.60;;;25.90;74.10;26.70;101007.00;;;;5008050;28;20192;-61
2023/08/16 00:07:07;;;;;;;4.30;3.60;;;25.90;74.20;26.70;101019.00;;;;5008150;28;20562;-63
2023/08/16 00:09:33;;;;;;;4.10;3.70;;;25.90;74.30;26.70;101013.00;;;;4991995;28;20183;-62
2023/08/16 00:11:59;;;;;;;3.80;3.50;;;25.90;74.30;26.70;101019.00;;;;5007897;28;20207;-62
2023/08/16 00:14:25;;;;;;;3.97;3.60;;;25.90;74.40;26.70;100969.00;;;;5009024;28;20183;-62
2023/08/16 00:16:50;;;;;;;4.97;3.75;;;25.90;74.60;26.70;101023.00;;;;5007850;28;20190;-63
2023/08/16 00:19:16;;;;;;;3.92;3.50;;;25.90;74.60;26.60;101018.00;;;;5007428;28;20176;-63
2023/08/16 00:21:43;;;;;;;3.80;3.50;;;25.90;74.60;26.60;101012.00;;;;4975347;28;20208;-63
2023/08/16 00:24:09;;;;;;;4.28;3.65;;;25.90;74.70;26.60;101013.00;;;;4991681;28;20191;-63
2023/08/16 00:26:34;;;;;;;4.07;3.67;;;25.90;74.70;26.60;101014.00;;;;5007803;28;20191;-63
2023/08/16 00:29:02;;;;;;;3.65;3.35;;;25.90;74.90;26.60;101014.00;;;;4991596;28;20550;-63
2023/08/16 00:31:27;;;;;;;3.75;3.45;;;25.90;75.00;26.60;101018.00;;;;5007889;28;20196;-63
2023/08/16 00:33:53;;;;;;;3.90;3.50;;;25.80;75.10;26.60;101014.00;;;;5008077;28;20186;-63
2023/08/16 00:36:19;;;;;;;5.05;3.78;;;25.90;75.00;26.60;101009.00;;;;5009328;28;20207;-63
2023/08/16 00:38:44;;;;;;;4.00;3.60;;;25.90;75.00;26.60;101024.00;;;;5009367;28;20184;-63
2023/08/16 00:41:13;;;;;;;3.95;3.65;;;25.80;75.00;26.60;100988.00;;;;5008864;28;20211;-63
2023/08/16 00:43:39;;;;;;;3.28;3.05;;;25.90;75.10;26.60;100991.00;;;;4993142;28;20290;-63
2023/08/16 00:46:06;;;;;;;4.07;3.78;;;25.80;75.00;26.60;101000.00;;;;5007715;28;20259;-61
2023/08/16 00:48:32;;;;;;;4.32;3.92;;;25.80;75.20;26.50;101006.00;;;;5007612;28;20180;-62
2023/08/16 00:50:58;;;;;;;3.75;3.45;;;25.90;75.20;26.50;100988.00;;;;5007261;28;20203;-63
2023/08/16 00:53:24;;;;;;;4.05;3.65;;;25.80;75.20;26.50;100993.00;;;;4991209;28;20270;-62
2023/08/16 00:55:50;;;;;;;4.72;3.53;;;25.80;75.30;26.50;101001.00;;;;5007397;28;20211;-62
2023/08/16 00:58:15;;;;;;;3.90;3.60;;;25.80;75.20;26.50;100993.00;;;;4991349;28;20700;-62
2023/08/16 01:00:41;;;;;;;3.80;3.50;;;25.80;75.30;26.50;100976.00;;;;4990968;28;20175;-61
2023/08/16 01:03:07;;;;;;;4.00;3.42;;;25.80;75.30;26.50;100992.00;;;;4990839;28;20195;-62
2023/08/16 01:05:33;;;;;;;3.95;3.47;;;25.80;75.30;26.50;100986.00;;;;5008810;28;20575;-61
2023/08/16 01:07:59;;;;;;;4.15;3.58;;;25.80;75.30;26.50;100988.00;;;;5008556;28;20176;-62
2023/08/16 01:10:46;;;;;;;4.07;3.38;;;25.80;75.30;26.50;100986.00;;;;4990808;28;20565;-63
2023/08/16 01:13:15;;;;;;;3.72;3.35;;;25.80;75.30;26.40;100990.00;;;;5007281;28;20210;-63
2023/08/16 01:15:44;;;;;;;3.88;3.58;;;25.70;75.20;26.40;100994.00;;;;4975276;28;20853;-63
2023/08/16 01:18:10;;;;;;;4.10;3.70;;;25.80;75.30;26.40;100965.00;;;;5007258;28;20277;-63
2023/08/16 01:20:36;;;;;;;4.65;3.50;;;25.70;75.20;26.40;100975.00;;;;4974817;28;20662;-62
2023/08/16 01:23:06;;;;;;;4.60;3.42;;;25.80;75.30;26.40;100991.00;;;;4974703;28;20261;-63
2023/08/16 01:25:50;;;;;;;3.92;3.63;;;25.70;75.20;26.40;100981.00;;;;5008635;28;20696;-63
2023/08/16 01:28:16;;;;;;;4.00;3.67;;;25.70;75.20;26.40;100987.00;;;;5008125;28;20274;-63
2023/08/16 01:30:42;;;;;;;4.28;3.88;;;25.70;75.20;26.40;100987.00;;;;4993463;28;20688;-63
2023/08/16 01:33:08;;;;;;;6.10;3.90;;;25.70;76.00;26.40;100995.00;;;;5010895;28;20580;-62
2023/08/16 01:35:35;;;;;;;4.13;3.72;;;25.70;75.20;26.30;100995.00;;;;5012520;28;20787;-62
2023/08/16 01:38:02;;;;;;;3.92;3.63;;;25.70;75.20;26.30;100985.00;;;;5011098;28;20661;-62
2023/08/16 01:40:30;;;;;;;4.05;3.65;;;25.60;75.10;26.30;100993.00;;;;4994794;28;20509;-62
2023/08/16 01:42:56;;;;;;;4.85;3.80;;;25.60;75.20;26.30;100982.00;;;;5013455;28;20805;-64
2023/08/16 01:45:22;;;;;;;4.40;4.00;;;25.60;75.10;26.30;100997.00;;;;5012330;28;20291;-63
2023/08/16 01:47:48;;;;;;;4.15;3.75;;;25.60;75.20;26.30;100989.00;;;;5010905;28;20539;-63
2023/08/16 01:50:13;;;;;;;4.10;3.80;;;25.60;75.10;26.20;100995.00;;;;4994720;28;20176;-62
2023/08/16 01:52:39;;;;;;;4.10;3.70;;;25.60;75.20;26.20;100996.00;;;;4978609;28;20200;-62
2023/08/16 01:55:06;;;;;;;5.07;4.00;;;25.50;75.00;26.20;101001.00;;;;5012089;28;20175;-64
2023/08/16 01:57:31;;;;;;;4.35;3.95;;;25.60;75.00;26.20;100995.00;;;;5013137;28;20545;-63
2023/08/16 01:59:57;;;;;;;4.00;3.70;;;25.60;75.10;26.20;101000.00;;;;5022613;28;20266;-63
2023/08/16 02:02:24;;;;;;;4.93;3.58;;;25.50;75.00;26.20;100999.00;;;;5020882;28;20207;-62
2023/08/16 02:04:50;;;;;;;3.90;3.60;;;25.50;75.00;26.20;100980.00;;;;5015939;28;20195;-64
2023/08/16 02:07:15;;;;;;;4.10;3.70;;;25.50;75.00;26.20;100996.00;;;;4994893;28;20187;-62
2023/08/16 02:09:41;;;;;;;4.43;4.03;;;25.50;75.00;26.20;100995.00;;;;5012130;28;20681;-62
2023/08/16 02:12:07;;;;;;;4.30;3.90;;;25.50;75.00;26.10;101006.00;;;;5011491;28;20200;-62
2023/08/16 02:14:33;;;;;;;3.78;3.47;;;25.50;75.00;26.10;101006.00;;;;5010098;28;20217;-62
2023/08/16 02:16:59;;;;;;;4.07;3.67;;;25.50;75.00;26.10;101005.00;;;;5011918;28;20183;-62
2023/08/16 02:19:24;;;;;;;4.05;3.70;;;25.50;75.00;26.10;101012.00;;;;5012278;28;20688;-63
2023/08/16 02:21:50;;;;;;;3.33;3.03;;;25.50;75.00;26.10;100990.00;;;;5010560;28;20211;-62
2023/08/16 02:24:16;;;;;;;3.80;3.45;;;25.50;75.00;26.10;100995.00;;;;5012223;28;20246;-61
2023/08/16 02:26:41;;;;;;;3.60;3.30;;;25.50;75.10;26.10;100999.00;;;;5011793;28;20183;-62
2023/08/16 02:29:07;;;;;;;3.88;3.53;;;25.50;75.00;26.10;101006.00;;;;5011634;28;20186;-63
2023/08/16 02:31:33;;;;;;;3.67;3.35;;;25.50;75.00;26.10;100993.00;;;;5011033;28;20643;-62
2023/08/16 02:33:59;;;;;;;4.00;3.60;;;25.40;75.00;26.10;101008.00;;;;5011306;28;20250;-62
2023/08/16 02:36:24;;;;;;;3.78;3.50;;;25.40;75.00;26.00;100998.00;;;;5011497;28;20246;-63
2023/08/16 02:38:50;;;;;;;3.75;3.45;;;25.40;75.00;26.00;101006.00;;;;5011392;28;20207;-62
2023/08/16 02:41:16;;;;;;;4.00;3.60;;;25.40;75.00;26.00;101004.00;;;;5010634;28;20199;-62
2023/08/16 02:43:41;;;;;;;3.80;3.50;;;25.40;75.00;26.00;101003.00;;;;5012450;28;20211;-62
2023/08/16 02:46:07;;;;;;;4.03;3.40;;;25.40;75.00;26.00;101012.00;;;;5011315;28;20616;-63
2023/08/16 02:48:33;;;;;;;3.95;3.65;;;25.40;75.00;26.00;101005.00;;;;5011394;28;20176;-62
2023/08/16 02:50:58;;;;;;;3.85;3.50;;;25.40;75.00;26.00;101000.00;;;;5010958;28;20218;-63
2023/08/16 02:53:24;;;;;;;3.90;3.60;;;25.40;75.00;26.00;100999.00;;;;5011351;28;20186;-62
2023/08/16 02:55:50;;;;;;;3.42;3.13;;;25.40;75.00;26.00;101004.00;;;;5011142;28;20700;-62
2023/08/16 02:58:16;;;;;;;3.35;3.05;;;25.40;74.90;25.90;101008.00;;;;5011351;28;20207;-62
2023/08/16 03:00:41;;;;;;;3.67;3.38;;;25.30;74.80;25.90;101001.00;;;;5011085;28;20179;-63
2023/08/16 03:03:07;;;;;;;4.10;3.45;;;25.30;74.80;25.90;101004.00;;;;5011857;28;20206;-62
2023/08/16 03:05:33;;;;;;;3.85;3.50;;;25.30;74.70;25.90;101014.00;;;;5011943;28;20178;-63
2023/08/16 03:07:58;;;;;;;3.70;3.40;;;25.30;74.50;25.90;101012.00;;;;5010695;28;20547;-62
2023/08/16 03:10:24;;;;;;;3.70;3.40;;;25.30;74.50;25.90;101018.00;;;;5011594;28;20257;-62
2023/08/16 03:12:50;;;;;;;3.85;3.53;;;25.30;74.50;25.90;101006.00;;;;5011841;28;20204;-62
2023/08/16 03:15:16;;;;;;;3.70;3.40;;;25.30;74.80;25.80;101012.00;;;;5011901;28;20179;-62
2023/08/16 03:17:42;;;;;;;4.72;3.70;;;25.30;74.90;25.80;101021.00;;;;5011604;28;20215;-64
2023/08/16 03:20:09;;;;;;;4.00;3.70;;;25.20;74.80;25.80;101013.00;;;;5011509;28;20179;-63
2023/08/16 03:22:35;;;;;;;3.80;3.50;;;25.20;74.70;25.80;101017.00;;;;5010438;28;20206;-63
2023/08/16 03:25:01;;;;;;;3.83;3.20;;;25.30;74.70;25.80;101027.00;;;;5011663;28;20196;-63
2023/08/16 03:27:26;;;;;;;4.15;3.38;;;25.20;74.60;25.80;101036.00;;;;5011765;28;20186;-63
2023/08/16 03:29:52;;;;;;;4.35;3.63;;;25.20;74.70;25.80;101034.00;;;;5010043;28;20266;-62
2023/08/16 03:32:18;;;;;;;5.68;3.85;;;25.20;74.80;25.80;101034.00;;;;5011135;28;20689;-62
2023/08/16 03:34:44;;;;;;;5.18;3.70;;;25.20;74.80;25.80;101036.00;;;;5011602;28;20194;-63
2023/08/16 03:37:10;;;;;;;4.90;3.60;;;25.20;74.80;25.70;101030.00;;;;5011842;28;20199;-62
2023/08/16 03:39:35;;;;;;;4.18;3.33;;;25.20;74.80;25.70;101041.00;;;;5011488;28;20179;-62
2023/08/16 03:42:01;;;;;;;4.45;3.70;;;25.20;74.90;25.70;101035.00;;;;5011099;28;20199;-61
2023/08/16 03:44:27;;;;;;;7.47;3.95;;;25.10;74.70;25.70;101047.00;;;;5012019;28;20574;-62
2023/08/16 03:46:53;;;;;;;6.55;3.28;;;25.20;74.90;25.70;101045.00;;;;5011018;28;20184;-62
2023/08/16 03:49:18;;;;;;;5.53;3.60;;;25.20;74.90;25.70;101047.00;;;;5010953;28;20187;-62
2023/08/16 03:51:44;;;;;;;3.38;3.08;;;25.10;74.80;25.70;101052.00;;;;5012691;28;20203;-62
2023/08/16 03:54:10;;;;;;;3.85;2.95;;;25.20;74.90;25.70;101057.00;;;;5001958;28;20192;-62
2023/08/16 03:56:36;;;;;;;6.50;3.40;;;25.10;74.80;25.70;101056.00;;;;5010428;28;20218;-62
2023/08/16 03:59:02;;;;;;;3.58;3.28;;;25.10;74.80;25.70;101053.00;;;;5010647;28;20175;-62
2023/08/16 04:01:27;;;;;;;3.53;3.22;;;25.20;74.90;25.70;101010.00;;;;5009824;28;20296;-62
2023/08/16 04:03:53;;;;;;;4.57;3.60;;;25.10;74.80;25.70;101050.00;;;;5010625;28;20682;-62
2023/08/16 04:06:20;;;;;;;3.35;3.05;;;25.10;74.80;25.70;101051.00;;;;5010352;28;20212;-62
2023/08/16 04:08:46;;;;;;;3.53;3.20;;;25.10;74.90;25.70;101054.00;;;;5010496;28;20435;-62
2023/08/16 04:11:12;;;;;;;4.05;3.42;;;25.10;74.90;25.70;101050.00;;;;5008692;28;20302;-62
2023/08/16 04:13:37;;;;;;;3.83;3.40;;;25.10;75.00;25.70;101044.00;;;;4992843;28;20206;-61
2023/08/16 04:16:03;;;;;;;3.58;3.28;;;25.10;74.80;25.60;101053.00;;;;4992375;28;20206;-61
2023/08/16 04:18:29;;;;;;;4.50;3.38;;;25.10;74.90;25.60;101054.00;;;;5009926;28;20696;-63
2023/08/16 04:20:55;;;;;;;3.42;3.13;;;25.10;74.90;25.60;101055.00;;;;5008571;28;20187;-62
2023/08/16 04:23:22;;;;;;;5.22;3.33;;;25.00;74.90;25.60;101053.00;;;;4975915;28;20206;-61
2023/08/16 04:25:48;;;;;;;3.88;3.42;;;25.00;74.90;25.60;101065.00;;;;5009333;28;20176;-61
2023/08/16 04:28:13;;;;;;;3.30;3.00;;;25.10;74.90;25.60;101048.00;;;;5008582;28;20230;-61
2023/08/16 04:30:39;;;;;;;3.13;2.88;;;25.00;74.90;25.60;101050.00;;;;5008422;28;20180;-61
2023/08/16 04:33:05;;;;;;;4.63;2.97;;;25.00;75.00;25.50;101046.00;;;;5009577;28;20196;-61
2023/08/16 04:35:31;;;;;;;3.22;2.92;;;25.00;75.00;25.50;101050.00;;;;5009248;28;20190;-62
2023/08/16 04:37:57;;;;;;;3.30;3.00;;;25.00;75.10;25.50;101050.00;;;;5008397;28;20176;-62
2023/08/16 04:40:23;;;;;;;3.05;2.75;;;25.00;74.90;25.50;101042.00;;;;5009652;28;20192;-61
2023/08/16 04:42:48;;;;;;;3.45;2.92;;;24.90;74.80;25.50;101055.00;;;;4992822;28;20204;-62
2023/08/16 04:45:14;;;;;;;4.07;2.80;;;25.00;74.80;25.50;101054.00;;;;5009356;28;20246;-61
2023/08/16 04:47:40;;;;;;;4.40;2.70;;;24.90;74.70;25.50;101004.00;;;;5009744;28;20179;-62
2023/08/16 04:50:06;;;;;;;3.13;2.72;;;24.90;74.70;25.50;101069.00;;;;5008208;28;20602;-62
2023/08/16 04:52:38;;;;;;;2.80;2.60;;;24.90;74.90;25.50;101062.00;;;;5009212;28;20201;-61
2023/08/16 04:55:07;;;;;;;3.28;2.72;;;24.90;75.00;25.50;101074.00;;;;5008046;28;20310;-61
2023/08/16 04:57:33;;;;;;;3.03;2.67;;;24.90;74.90;25.50;101079.00;;;;5008932;28;20172;-60
2023/08/16 04:59:58;;;;;;;3.33;3.00;;;24.90;75.00;25.50;101077.00;;;;5009298;28;20179;-60
2023/08/16 05:02:24;;;;;;;3.75;2.90;;;24.80;74.90;25.50;101078.00;;;;5008231;28;20195;-61
2023/08/16 05:04:50;;;;;;;5.13;3.00;;;24.80;75.00;25.40;101077.00;;;;5008985;28;20693;-61
2023/08/16 05:07:16;;;;;;;3.63;3.15;;;24.80;75.00;25.40;101080.00;;;;5009623;28;20273;-62
2023/08/16 05:09:41;;;;;;;3.63;3.10;;;24.80;75.10;25.40;101083.00;;;;5009380;28;20183;-61
2023/08/16 05:12:07;;;;;;;3.97;3.28;;;24.80;75.10;25.40;101077.00;;;;5008288;28;20199;-61
2023/08/16 05:14:33;;;;;;;3.60;3.20;;;24.80;75.10;25.40;101073.00;;;;5007740;28;20208;-61
2023/08/16 05:16:59;;;;;;;5.50;3.00;;;24.80;75.10;25.40;101065.00;;;;5009216;28;20725;-61
2023/08/16 05:19:24;;;;;;;3.20;2.90;;;24.80;75.20;25.40;101066.00;;;;5013843;28;20241;-61
2023/08/16 05:21:50;;;;;;;3.00;2.80;;;24.80;75.30;25.40;101067.00;;;;5018147;28;20203;-62
2023/08/16 05:24:16;;;;;;;3.30;3.00;;;24.70;75.40;25.40;101081.00;;;;5019232;28;20195;-61
2023/08/16 05:26:42;;;;;;;2.88;2.60;;;24.70;75.20;25.40;101068.00;;;;5009143;28;20687;-61
2023/08/16 05:29:07;;;;;;;5.93;3.10;;;24.70;75.20;25.40;101078.00;;;;5009406;28;20183;-62
2023/08/16 05:31:33;;;;;;;3.60;2.92;;;24.70;75.40;25.40;101078.00;;;;5008371;28;20199;-62
2023/08/16 05:33:59;;;;;;;3.67;3.05;;;24.70;75.40;25.40;101059.00;;;;5008769;28;20175;-60
2023/08/16 05:36:28;;;;;;;3.63;3.10;;;24.70;75.60;25.40;101085.00;;;;5008809;28;20191;-61
2023/08/16 05:38:54;;;;;;;3.22;2.92;;;24.70;75.70;25.40;101080.00;;;;5007807;28;20171;-61
2023/08/16 05:41:19;;;;;;;3.40;3.10;;;24.70;75.60;25.40;101072.00;;;;5008888;28;20724;-61
2023/08/16 05:43:45;;;;;;;4.43;3.58;;;24.70;75.60;25.40;101086.00;;;;5010105;28;20289;-61
2023/08/16 05:46:11;;;;;;;4.90;3.60;;;24.70;75.60;25.30;101075.00;;;;5008919;28;20712;-62
2023/08/16 05:48:37;;;;;;;4.50;4.10;;;24.70;75.60;25.40;101069.00;;;;5008784;28;20199;-62
2023/08/16 05:51:02;;;;;;;4.88;4.38;;;24.70;75.70;25.40;101071.00;;;;5008051;28;20214;-62
2023/08/16 05:53:28;;;;;;;4.50;4.10;;;24.70;75.80;25.30;101076.00;;;;5008929;28;20226;-62
2023/08/16 05:55:54;;;;;;;5.28;3.92;;;24.70;75.90;25.30;101079.00;;;;5007261;28;20187;-63
2023/08/16 05:58:20;;;;;;;4.60;4.00;;;24.70;75.90;25.30;101064.00;;;;5008061;28;20271;-62
2023/08/16 06:00:47;;;;;;;4.30;3.90;;;24.60;75.90;25.30;101078.00;;;;5006953;28;20621;-62
2023/08/16 06:03:14;;;;;;;4.55;3.95;;;24.70;76.00;25.30;101071.00;;;;5007457;28;20208;-62
2023/08/16 06:05:39;;;;;;;4.80;4.20;;;24.60;76.10;25.30;101071.00;;;;4976766;28;20773;-62
2023/08/16 06:08:05;;;;;;;4.55;4.15;;;24.60;76.20;25.30;101078.00;;;;5007687;28;20190;-61
2023/08/16 06:10:31;;;;;;;4.40;4.00;;;24.60;76.10;25.30;101093.00;;;;5008794;28;20180;-61
2023/08/16 06:12:57;;;;;;;4.55;4.15;;;24.60;76.30;25.30;101093.00;;;;5008905;28;20705;-61
2023/08/16 06:15:22;;;;;;;5.18;4.65;;;24.60;76.20;25.30;101081.00;;;;5008986;28;20172;-60
2023/08/16 06:17:48;;;;;;;4.65;4.25;;;24.60;76.40;25.30;101088.00;;;;5012022;28;20632;-61
2023/08/16 06:20:14;;;;;;;4.70;4.30;;;24.70;76.40;25.30;101080.00;;;;5012405;28;20654;-60
2023/08/16 06:22:40;;;;;;;5.05;4.53;;;24.60;76.10;25.30;101082.00;;;;5012431;28;20200;-61
2023/08/16 06:25:06;;;;;;;5.30;4.78;;;24.60;76.20;25.30;101091.00;;;;5011122;28;20214;-61
2023/08/16 06:27:33;;;;;;;4.60;4.20;;;24.60;76.30;25.30;101102.00;;;;5011216;28;20798;-60
2023/08/16 06:29:59;;;;;;;4.78;4.38;;;24.70;76.30;25.30;101105.00;;;;5011989;28;20180;-61
2023/08/16 06:32:25;;;;;;;4.50;4.10;;;24.60;76.20;25.30;101103.00;;;;5010968;28;20586;-61
2023/08/16 06:34:51;;;;;;;4.90;4.50;;;24.70;76.30;25.30;101100.00;;;;5011991;28;20175;-61
2023/08/16 06:37:17;;;;;;;5.25;4.75;;;24.60;76.10;25.30;101099.00;;;;5012130;28;20689;-61
2023/08/16 06:39:42;;;;;;;5.40;4.90;;;24.60;76.40;25.30;101105.00;;;;5011888;28;20186;-61
2023/08/16 06:42:09;;;;;;;5.18;4.78;;;24.60;76.30;25.30;101101.00;;;;5012046;28;20209;-60
2023/08/16 06:44:35;;;;;;;4.72;4.32;;;24.60;76.20;25.30;101107.00;;;;4995442;28;20195;-61
2023/08/16 06:47:01;;;;;;;5.32;4.82;;;24.70;76.30;25.30;101112.00;;;;5011864;28;20645;-60
2023/08/16 06:49:27;;;;;;;4.90;4.50;;;24.60;76.10;25.30;101102.00;;;;5011788;28;20190;-61
2023/08/16 06:51:53;;;;;;;5.40;5.00;;;24.70;76.10;25.30;101122.00;;;;5010489;28;20234;-60
2023/08/16 06:54:19;;;;;;;6.93;5.75;;;24.70;76.50;25.30;101117.00;;;;5012280;28;20179;-61
2023/08/16 06:56:44;;;;;;;5.90;5.38;;;24.70;76.50;25.30;101123.00;;;;5012210;28;20184;-61
2023/08/16 06:59:10;;;;;;;5.22;4.82;;;24.70;77.30;25.30;101130.00;;;;5011940;28;20219;-60
2023/08/16 07:01:36;;;;;;;5.40;5.00;;;24.70;76.20;25.30;101126.00;;;;5011553;28;20204;-60
2023/08/16 07:04:02;;;;;;;5.35;4.85;;;24.70;76.30;25.40;101115.00;;;;5011511;28;20633;-61
2023/08/16 07:06:31;;;;;;;5.88;5.38;;;24.70;76.20;25.30;101118.00;;;;5011527;28;20187;-60
2023/08/16 07:09:00;;;;;;;5.95;5.45;;;24.70;76.50;25.30;101117.00;;;;5011493;28;20226;-60
2023/08/16 07:11:26;;;;;;;5.97;5.32;;;24.70;76.50;25.30;101120.00;;;;5010077;28;20259;-59
2023/08/16 07:13:51;;;;;;;6.20;5.70;;;24.70;76.70;25.30;101121.00;;;;5010139;28;20184;-60
2023/08/16 07:16:18;;;;;;;6.50;6.00;;;24.70;76.70;25.30;101127.00;;;;5011064;28;20375;-60
2023/08/16 07:18:44;;;;;;;6.70;6.10;;;24.70;76.80;25.40;101135.00;;;;4977740;28;20198;-59
2023/08/16 07:21:10;;;;;;;6.45;5.85;;;24.70;76.70;25.40;101119.00;;;;5010994;28;20187;-59
2023/08/16 07:23:36;;;;;;;6.57;6.07;;;24.70;76.60;25.40;101133.00;;;;4993781;28;20697;-59
2023/08/16 07:26:02;;;;;;;6.18;5.72;;;24.80;76.60;25.40;101138.00;;;;5011275;28;20186;-58
2023/08/16 07:28:28;;;;;;;6.18;5.68;;;24.80;76.70;25.40;101138.00;;;;4993759;28;20189;-60
2023/08/16 07:30:54;;;;;;;6.32;5.78;;;24.70;76.60;25.40;101141.00;;;;5009626;28;20180;-59
2023/08/16 07:33:21;;;;;;;5.97;5.40;;;24.70;76.50;25.40;101139.00;;;;5007413;28;20674;-60
2023/08/16 07:35:48;;;;;;;5.55;5.15;;;24.70;76.30;25.40;101135.00;;;;5008851;28;20203;-60
2023/08/16 07:38:14;;;;;;;5.78;5.28;;;24.70;76.30;25.40;101143.00;;;;4993385;28;20613;-59
2023/08/16 07:40:39;;;;;;;6.10;5.60;;;24.80;76.30;25.40;101148.00;;;;5009358;28;20188;-59
2023/08/16 07:43:05;;;;;;;6.20;5.70;;;24.80;76.30;25.40;101147.00;;;;5009167;28;20705;-60
2023/08/16 07:45:31;;;;;;;5.78;5.28;;;24.70;76.40;25.40;101149.00;;;;5009181;28;20187;-60
2023/08/16 07:47:56;;;;;;;5.90;5.40;;;24.70;76.50;25.40;101143.00;;;;5011678;28;20183;-60
2023/08/16 07:50:22;;;;;;;6.20;5.70;;;24.80;76.30;25.40;101143.00;;;;5010944;28;20183;-59
2023/08/16 07:52:49;;;;;;;6.68;6.07;;;24.80;76.40;25.40;101151.00;;;;5010697;28;20419;-60
2023/08/16 07:55:16;;;;;;;6.68;6.15;;;24.80;76.50;25.40;101150.00;;;;5010397;28;20176;-60
2023/08/16 07:57:42;;;;;;;6.55;6.00;;;24.70;76.30;25.40;101145.00;;;;5008952;28;20184;-59
2023/08/16 08:00:12;;;;;;;7.10;6.50;;;24.80;77.20;25.40;101150.00;;;;5009983;28;20179;-58
2023/08/16 08:02:39;;;;;;;8.48;7.75;;;24.80;76.60;25.40;101138.00;;;;5012144;28;20330;-60
2023/08/16 08:05:06;;;;;;;8.35;7.65;;;24.70;76.40;25.40;101147.00;;;;4994337;28;20244;-60
2023/08/16 08:07:32;;;;;;;8.77;7.95;;;24.70;76.80;25.40;101133.00;;;;5009621;28;20270;-60
2023/08/16 08:09:58;;;;;;;8.02;7.38;;;24.70;76.80;25.40;101127.00;;;;5010022;28;20330;-59
2023/08/16 08:12:24;;;;;;;8.48;7.68;;;24.70;76.70;25.30;101129.00;;;;5010243;28;20270;-60
2023/08/16 08:14:50;;;;;;;8.40;7.70;;;24.70;76.70;25.40;101141.00;;;;5008954;28;20274;-60
2023/08/16 08:17:16;;;;;;;8.48;7.68;;;24.70;76.70;25.30;101145.00;;;;5009296;28;20203;-59
2023/08/16 08:19:41;;;;;;;8.80;8.00;;;24.70;76.60;25.40;101162.00;;;;4993038;28;20176;-59
2023/08/16 08:22:07;;;;;;;8.80;8.10;;;24.70;76.60;25.40;101158.00;;;;5009022;28;20204;-59
2023/08/16 08:24:34;;;;;;;8.80;8.10;;;24.70;77.50;25.40;101167.00;;;;5009403;28;20239;-59
2023/08/16 08:27:00;;;;;;;9.40;8.50;;;24.70;76.70;25.40;101168.00;;;;5009709;28;20209;-59
2023/08/16 08:29:25;;;;;;;8.27;7.68;;;24.70;76.70;25.40;101171.00;;;;5008796;28;20454;-59
2023/08/16 08:31:53;;;;;;;8.70;8.00;;;24.70;76.60;25.40;101172.00;;;;5007960;28;20238;-59
2023/08/16 08:34:19;;;;;;;9.05;8.30;;;24.70;76.70;25.20;101171.00;;;;5008527;28;20195;-59
2023/08/16 08:36:45;;;;;;;8.85;8.05;;;24.70;76.70;25.40;101172.00;;;;5007606;28;20267;-59
2023/08/16 08:39:10;;;;;;;8.55;7.80;;;24.70;76.80;25.40;101175.00;;;;5006960;28;20195;-59
2023/08/16 08:41:37;;;;;;;8.80;7.97;;;24.70;76.70;25.40;101178.00;;;;5008329;28;20681;-59
2023/08/16 08:44:04;;;;;;;8.77;8.02;;;24.70;76.70;25.40;101164.00;;;;5009410;28;20678;-59
2023/08/16 08:46:30;;;;;;;9.10;8.30;;;24.70;76.60;25.40;101164.00;;;;5008889;28;20175;-59
2023/08/16 08:49:00;;;;;;;8.80;8.00;;;24.70;76.60;25.40;101165.00;;;;5008746;28;20576;-60
2023/08/16 08:51:30;;;;;;;8.38;7.68;;;24.70;76.70;25.40;101149.00;;;;4992305;28;20257;-59
2023/08/16 08:53:56;;;;;;;8.95;8.20;;;24.70;76.60;25.40;101161.00;;;;5008562;28;20199;-59
2023/08/16 08:56:22;;;;;;;9.00;8.20;;;24.70;76.70;25.40;101174.00;;;;5008417;28;20179;-59
2023/08/16 08:58:48;;;;;;;8.65;7.95;;;24.70;76.60;25.40;101164.00;;;;4976228;28;20187;-59
2023/08/16 09:01:14;;;;;;;8.95;8.05;;;24.70;76.60;25.40;101174.00;;;;4976006;28;20554;-59
2023/08/16 09:03:40;;;;;;;8.40;7.60;;;24.70;76.60;25.40;101179.00;;;;4976053;28;20203;-60
2023/08/16 09:06:05;;;;;;;8.30;7.50;;;24.70;76.50;25.40;101173.00;;;;5009481;28;20720;-59
2023/08/16 09:08:32;;;;;;;7.55;6.95;;;24.70;76.50;25.40;101166.00;;;;5007887;28;20199;-58
2023/08/16 09:10:59;;;;;;;8.65;7.85;;;24.70;76.50;25.40;101161.00;;;;5007678;28;20190;-58
2023/08/16 09:13:25;;;;;;;8.35;7.65;;;24.70;76.70;25.40;101159.00;;;;5009405;28;20245;-59
2023/08/16 09:15:50;;;;;;;8.05;7.35;;;24.70;76.50;25.40;101164.00;;;;5007914;28;20183;-58
2023/08/16 09:18:17;;;;;;;8.32;7.63;;;24.70;76.60;25.40;101155.00;;;;5009208;28;20202;-58
2023/08/16 09:20:43;;;;;;;7.97;7.38;;;24.70;76.50;25.40;101162.00;;;;5005309;28;20175;-58
2023/08/16 09:23:13;;;;;;;8.55;7.80;;;24.70;76.80;25.40;101158.00;;;;5006894;28;20222;-59
2023/08/16 09:25:39;;;;;;;9.65;7.88;;;24.70;76.90;25.40;101164.00;;;;4991475;28;20183;-59
2023/08/16 09:28:09;;;;;;;14.43;8.80;;;24.70;77.20;25.40;101143.00;;;;5008871;28;20171;-60
2023/08/16 09:30:34;;;;;;;14.50;7.90;;;24.70;77.60;25.40;101160.00;;;;5007597;28;20181;-56
2023/08/16 09:33:00;;;;;;;8.10;7.25;;;24.70;77.40;25.40;101163.00;;;;4991516;28;20203;-58
2023/08/16 09:35:48;;;;;;;8.45;7.43;;;24.70;77.20;25.40;101163.00;;;;5008631;28;20179;-57
2023/08/16 09:38:15;;;;;;;9.93;7.63;;;24.70;77.40;25.40;101166.00;;;;5009130;28;20246;-58
2023/08/16 09:40:53;;;;;;;8.57;7.78;;;24.70;77.20;25.50;101159.00;;;;5008782;28;20228;-59
2023/08/16 09:43:19;;;;;;;8.18;7.40;;;24.70;77.30;25.50;101162.00;;;;5010039;28;20195;-59
2023/08/16 09:45:52;;;;;;;9.40;8.43;;;24.70;77.30;25.50;101174.00;;;;5005378;28;20187;-60
2023/08/16 09:48:21;;;;;;;8.70;7.75;;;24.70;77.50;25.40;101172.00;;;;4988185;28;20372;-59
2023/08/16 09:50:47;;;;;;;8.70;7.72;;;24.70;77.60;25.40;101170.00;;;;5006384;28;20599;-59
2023/08/16 09:53:13;;;;;;;9.13;7.65;;;24.70;77.50;25.50;101162.00;;;;4997295;28;20208;-59
2023/08/16 09:55:40;;;;;;;8.98;7.70;;;24.70;77.50;25.50;101157.00;;;;5017907;28;20712;-60
2023/08/16 09:58:07;;;;;;;8.23;7.53;;;24.70;77.50;25.50;101143.00;;;;5008962;28;20176;-60
2023/08/16 10:00:34;;;;;;;8.90;8.18;;;24.70;77.60;25.50;101169.00;;;;4995266;28;20172;-60
2023/08/16 10:03:00;;;;;;;8.52;7.80;;;24.70;77.50;25.50;101172.00;;;;5012842;28;20192;-59
2023/08/16 10:05:26;;;;;;;8.43;7.47;;;24.70;77.50;25.50;101165.00;;;;5009684;28;20736;-59
2023/08/16 10:07:52;;;;;;;8.05;7.30;;;24.80;77.50;25.50;101178.00;;;;5014091;28;20175;-58
2023/08/16 10:10:18;;;;;;;8.68;7.88;;;24.70;77.50;25.50;101163.00;;;;5002580;28;20668;-60
2023/08/16 10:12:45;;;;;;;8.70;7.90;;;24.70;77.50;25.50;101164.00;;;;5011874;28;20200;-60
2023/08/16 10:15:11;;;;;;;8.20;7.38;;;24.80;77.50;25.50;101141.00;;;;4993150;28;20240;-58
2023/08/16 10:17:42;;;;;;;8.63;7.80;;;24.70;77.40;25.50;101154.00;;;;5009890;28;20698;-59
2023/08/16 10:20:25;;;;;;;8.57;7.88;;;24.70;77.50;25.50;101150.00;;;;5010213;28;20180;-59
2023/08/16 10:23:02;;;;;;;8.65;7.93;;;24.70;77.60;25.50;101154.00;;;;4992060;28;20677;-59
2023/08/16 10:25:45;;;;;;;9.85;9.05;;;24.80;77.70;25.50;101141.00;;;;5007281;28;20206;-60
2023/08/16 10:28:10;;;;;;;9.20;8.50;;;24.80;77.80;25.50;101157.00;;;;4976592;28;20183;-59
2023/08/16 10:30:36;;;;;;;10.32;9.43;;;24.80;77.90;25.50;101153.00;;;;5009938;28;20583;-59
2023/08/16 10:33:13;;;;;;;9.65;8.70;;;24.80;77.90;25.50;101133.00;;;;4993457;28;20215;-59
2023/08/16 10:35:39;;;;;;;10.05;9.18;;;24.80;77.90;25.50;101145.00;;;;4978458;28;20187;-60
2023/08/16 10:38:04;;;;;;;9.30;8.50;;;24.80;77.90;25.60;101142.00;;;;4993576;28;20219;-59
2023/08/16 10:40:30;;;;;;;9.75;8.95;;;24.80;77.80;25.60;101139.00;;;;5010107;28;20186;-59
2023/08/16 10:43:03;;;;;;;10.20;9.30;;;24.80;77.80;25.60;101149.00;;;;5013256;28;20245;-60
2023/08/16 10:45:34;;;;;;;9.32;8.57;;;24.80;77.80;25.60;101127.00;;;;5010741;28;20300;-59